Weather at Sana'a International Airport

Public forecast

Using degrees Celsius for public forecast. Weather courtesy of forecast.io.

Closest aviation weather report (METAR) to Sana'a International Airport

Closest report is Jizan Regional Airport / King Abdullah bin Abdulaziz Airport, 127.3 nm (235.7 km) NW.

2024/02/25 09:00 (retrieved 54 minutes ago)

OEGN 250900Z 20010KT 9000 SCT030 30/24 Q1013 NOSIG

Closest aviation forecast (TAF) to Sana'a International Airport

Closest forecast is Sharurah Domestic Airport, 205.4 nm (380.4 km) NE.

2024/02/25 09:20 Ammendment (retrieved 34 minutes ago)

TAF AMD OESH 250900Z 2509/2606 21014KT 7000 NSC TEMPO 2509/2514 3000 BLDU BECMG 2516/2518 02010KT